createdAt,value
2022-09-05T00:04:34.243Z,97323.38
2022-09-05T00:09:37.725Z,97321.25
2022-09-05T00:15:15.980Z,97316.09
2022-09-05T00:24:23.410Z,97320.28
2022-09-05T00:26:11.140Z,97326.50
2022-09-05T00:31:55.843Z,97320.66
2022-09-05T00:36:58.839Z,97331.41
2022-09-05T00:42:16.199Z,97324.31
2022-09-05T00:47:38.061Z,97324.63
2022-09-05T00:53:13.940Z,97323.16
2022-09-05T00:58:48.151Z,97319.47
2022-09-05T01:04:22.252Z,97312.81
2022-09-05T01:09:38.708Z,97304.47
2022-09-05T01:15:05.339Z,97306.19
2022-09-05T01:20:19.498Z,97304.09
2022-09-05T01:25:47.070Z,97301.97
2022-09-05T01:31:14.507Z,97301.28
2022-09-05T01:36:38.472Z,97296.47
2022-09-05T01:41:54.733Z,97302.53
2022-09-05T01:47:30.928Z,97298.22
2022-09-05T01:53:06.348Z,97303.06
2022-09-05T01:58:16.587Z,97296.34
2022-09-05T02:03:38.043Z,97293.78
2022-09-05T02:09:11.304Z,97292.81
2022-09-05T02:14:28.804Z,97296.66
2022-09-05T02:19:53.539Z,97286.38
2022-09-05T02:25:18.138Z,97285.69
2022-09-05T02:31:00.363Z,97289.97
2022-09-05T02:36:39.362Z,97292.50
2022-09-05T02:45:06.487Z,97293.41
2022-09-05T02:47:21.594Z,97297.88
2022-09-05T02:57:43.270Z,97290.63
2022-09-05T02:58:07.447Z,97294.94
2022-09-05T03:03:39.771Z,97302.34
2022-09-05T03:09:16.921Z,97297.69
2022-09-05T03:14:47.319Z,97299.28
2022-09-05T03:20:09.451Z,97305.88
2022-09-05T03:25:45.419Z,97300.72
2022-09-05T03:31:20.558Z,97304.56
2022-09-05T03:36:47.068Z,97302.16
2022-09-05T03:42:02.768Z,97307.31
2022-09-05T03:47:33.762Z,97308.09
2022-09-05T03:57:08.254Z,97312.44
2022-09-05T03:58:57.407Z,97319.19
2022-09-05T04:08:09.579Z,97313.94
2022-09-05T04:09:51.130Z,97317.75
2022-09-05T04:15:13.527Z,97318.31
2022-09-05T04:20:41.515Z,97324.97
2022-09-05T04:26:09.261Z,97328.75
2022-09-05T04:31:35.292Z,97335.09
2022-09-05T04:36:41.573Z,97342.50
2022-09-05T04:41:56.796Z,97347.75
2022-09-05T04:47:10.447Z,97342.19
2022-09-05T04:53:01.195Z,97346.56
2022-09-05T04:58:53.496Z,97352.84
2022-09-05T05:06:11.747Z,97355.28
2022-09-05T05:09:21.528Z,97345.19
2022-09-05T05:18:03.937Z,97357.53
2022-09-05T05:20:42.970Z,97355.13
2022-09-05T05:25:53.689Z,97359.34
2022-09-05T05:31:15.469Z,97353.50
2022-09-05T05:36:25.815Z,97356.38
2022-09-05T05:41:49.883Z,97358.13
2022-09-05T05:46:58.830Z,97365.69
2022-09-05T05:52:24.005Z,97374.78
2022-09-05T05:57:42.541Z,97372.00
2022-09-05T06:03:26.655Z,97367.56
2022-09-05T06:11:20.438Z,97369.91
2022-09-05T06:15:09.370Z,97377.34
2022-09-05T06:22:05.392Z,97380.03
2022-09-05T06:25:57.253Z,97377.03
2022-09-05T06:31:31.478Z,97367.63
2022-09-05T06:36:59.021Z,97378.06
2022-09-05T06:42:42.605Z,97370.16
2022-09-05T06:47:51.361Z,97373.06
2022-09-05T06:53:20.919Z,97369.94
2022-09-05T06:58:54.454Z,97366.16
2022-09-05T07:05:23.482Z,97376.94
2022-09-05T07:10:16.776Z,97379.06
2022-09-05T07:15:55.487Z,97383.88
2022-09-05T07:21:18.282Z,97375.44
2022-09-05T07:26:51.774Z,97373.06
2022-09-05T07:31:59.897Z,97372.06
2022-09-05T07:37:44.959Z,97365.75
2022-09-05T07:43:09.509Z,97363.63
2022-09-05T07:48:34.524Z,97359.41
2022-09-05T07:57:03.984Z,97359.25
2022-09-05T07:59:08.941Z,97361.28
2022-09-05T08:04:35.314Z,97360.72
2022-09-05T08:10:10.168Z,97354.88
2022-09-05T08:15:20.780Z,97357.09
2022-09-05T08:20:46.263Z,97354.94
2022-09-05T08:26:07.395Z,97348.63
2022-09-05T08:31:20.639Z,97349.66
2022-09-05T08:36:33.389Z,97345.47
2022-09-05T08:42:03.358Z,97352.66
2022-09-05T08:47:23.559Z,97332.94
2022-09-05T08:52:45.970Z,97333.63
2022-09-05T08:58:38.251Z,97333.53
2022-09-05T09:04:11.481Z,97346.00
2022-09-05T09:09:28.279Z,97336.72
2022-09-05T09:14:52.384Z,97349.31
2022-09-05T09:20:31.494Z,97343.25
2022-09-05T09:26:17.771Z,97342.66
2022-09-05T09:31:37.089Z,97339.72
2022-09-05T09:37:18.751Z,97324.00
2022-09-05T09:42:58.753Z,97331.81
2022-09-05T09:48:10.973Z,97319.88
2022-09-05T09:53:37.105Z,97322.06
2022-09-05T09:59:05.677Z,97329.66
2022-09-05T10:10:38.562Z,97317.47
2022-09-05T10:10:55.125Z,97316.66
2022-09-05T10:16:09.744Z,97314.00
2022-09-05T10:21:33.775Z,97306.69
2022-09-05T10:27:04.409Z,97306.13
2022-09-05T10:34:26.812Z,97292.59
2022-09-05T10:38:10.142Z,97295.56
2022-09-05T10:43:26.006Z,97286.50
2022-09-05T10:48:53.640Z,97289.94
2022-09-05T10:54:08.202Z,97283.53
2022-09-05T11:02:19.199Z,97283.88
2022-09-05T11:05:31.010Z,97278.09
2022-09-05T11:10:50.168Z,97269.72
2022-09-05T11:16:14.415Z,97275.41
2022-09-05T11:21:38.046Z,97270.38
2022-09-05T11:27:24.899Z,97260.44
2022-09-05T11:36:06.839Z,97256.38
2022-09-05T11:40:08.377Z,97247.28
2022-09-05T11:43:42.065Z,97238.19
2022-09-05T11:49:08.174Z,97233.56
2022-09-05T11:54:39.583Z,97232.50
2022-09-05T12:00:10.674Z,97223.63
2022-09-05T12:06:00.121Z,97224.53
2022-09-05T12:11:32.587Z,97215.69
2022-09-05T12:16:54.526Z,97211.94
2022-09-05T12:22:26.949Z,97197.75
2022-09-05T12:27:45.658Z,97201.50
2022-09-05T12:36:01.834Z,97200.38
2022-09-05T12:40:35.601Z,97194.56
2022-09-05T12:44:39.834Z,97199.94
2022-09-05T12:49:52.461Z,97195.50
2022-09-05T12:55:23.178Z,97197.06
2022-09-05T13:03:04.683Z,97206.88
2022-09-05T13:06:25.261Z,97195.91
2022-09-05T13:15:00.652Z,97187.47
2022-09-05T13:17:00.532Z,97188.81
2022-09-05T13:22:05.958Z,97194.06
2022-09-05T13:27:14.981Z,97193.06
2022-09-05T13:37:55.827Z,97189.22
2022-09-05T13:38:48.295Z,97181.88
2022-09-05T13:43:50.808Z,97176.06
2022-09-05T13:49:30.894Z,97179.72
2022-09-05T13:54:48.785Z,97177.66
2022-09-05T14:00:26.675Z,97172.50
2022-09-05T14:05:37.868Z,97174.66
2022-09-05T14:10:58.647Z,97169.91
2022-09-05T14:16:08.829Z,97165.28
2022-09-05T14:21:14.472Z,97160.53
2022-09-05T14:26:27.973Z,97160.41
2022-09-05T14:35:49.973Z,97153.09
2022-09-05T14:37:48.806Z,97156.63
2022-09-05T14:42:49.324Z,97161.41
2022-09-05T14:48:15.591Z,97154.38
2022-09-05T15:02:53.203Z,97156.38
2022-09-05T15:11:25.413Z,97155.34
2022-09-05T15:15:25.540Z,97160.03
2022-09-05T15:20:32.629Z,97155.19
2022-09-05T15:26:03.383Z,97154.75
2022-09-05T15:31:10.495Z,97145.97
2022-09-05T15:36:30.037Z,97137.78
2022-09-05T15:41:38.036Z,97143.00
2022-09-05T15:46:51.235Z,97137.41
2022-09-05T15:51:59.162Z,97133.44
2022-09-05T15:57:06.889Z,97138.72
2022-09-05T16:02:18.968Z,97137.97
2022-09-05T16:10:31.185Z,97139.78
2022-09-05T16:12:54.290Z,97140.56
2022-09-05T16:23:14.855Z,97147.84
2022-09-05T16:24:04.189Z,97145.13
2022-09-05T16:29:26.969Z,97154.78
2022-09-05T16:34:46.623Z,97153.66
2022-09-05T16:39:57.083Z,97165.56
2022-09-05T16:45:10.085Z,97168.78
2022-09-05T16:50:47.424Z,97170.56
2022-09-05T16:56:16.713Z,97181.63
2022-09-05T17:01:54.881Z,97182.25
2022-09-05T17:07:16.709Z,97168.81
2022-09-05T17:12:28.940Z,97186.00
2022-09-05T17:18:21.938Z,97179.22
2022-09-05T17:29:11.420Z,97191.75
2022-09-05T17:29:31.261Z,97190.63
2022-09-05T17:34:58.759Z,97196.28
2022-09-05T17:40:46.031Z,97202.22
2022-09-05T17:45:54.738Z,97206.56
2022-09-05T17:50:58.130Z,97203.19
2022-09-05T17:56:04.664Z,97213.31
2022-09-05T18:01:19.924Z,97215.09
2022-09-05T18:06:36.038Z,97221.84
2022-09-05T18:12:03.015Z,97225.53
2022-09-05T18:17:38.198Z,97217.97
2022-09-05T18:22:47.602Z,97222.63
2022-09-05T18:28:39.011Z,97223.13
2022-09-05T18:34:02.757Z,97217.16
2022-09-05T18:39:38.494Z,97208.66
2022-09-05T18:44:46.978Z,97215.88
2022-09-05T18:50:26.523Z,97216.66
2022-09-05T18:55:52.662Z,97215.88
2022-09-05T19:00:51.726Z,97215.53
2022-09-05T19:06:34.582Z,97206.06
2022-09-05T19:11:32.423Z,97209.91
2022-09-05T19:16:43.642Z,97197.88
2022-09-05T19:21:57.240Z,97206.06
2022-09-05T19:28:58.402Z,97191.75
2022-09-05T19:36:52.544Z,97200.41
2022-09-05T19:38:12.762Z,97197.50
2022-09-05T19:47:35.372Z,97191.88
2022-09-05T19:48:42.805Z,97197.34
2022-09-05T19:54:05.047Z,97188.50
2022-09-05T19:59:24.900Z,97186.56
2022-09-05T20:04:33.643Z,97185.28
2022-09-05T20:09:43.135Z,97176.75
2022-09-05T20:14:46.749Z,97174.94
2022-09-05T20:20:10.155Z,97175.28
2022-09-05T20:25:35.955Z,97177.50
2022-09-05T20:30:48.654Z,97180.72
2022-09-05T20:43:10.521Z,97184.56
2022-09-05T20:43:35.737Z,97180.56
2022-09-05T20:50:38.715Z,97180.06
2022-09-05T20:54:15.846Z,97168.50
2022-09-05T20:58:24.708Z,97167.59
2022-09-05T21:03:40.840Z,97166.13
2022-09-05T21:08:53.339Z,97159.38
2022-09-05T21:14:01.742Z,97159.50
2022-09-05T21:19:05.465Z,97162.56
2022-09-05T21:24:16.473Z,97156.63
2022-09-05T21:29:33.198Z,97151.97
2022-09-05T21:34:50.758Z,97146.78
2022-09-05T21:39:59.244Z,97141.19
2022-09-05T21:47:48.432Z,97134.25
2022-09-05T21:50:42.853Z,97138.91
2022-09-05T21:59:29.609Z,97141.13
2022-09-05T22:01:10.346Z,97134.41
2022-09-05T22:06:16.083Z,97129.59
2022-09-05T22:11:20.029Z,97132.94
2022-09-05T22:16:24.551Z,97119.94
2022-09-05T22:21:34.603Z,97122.81
2022-09-05T22:27:11.815Z,97123.13
2022-09-05T22:32:06.786Z,97106.56
2022-09-05T22:37:10.442Z,97112.03
2022-09-05T22:42:13.920Z,97104.31
2022-09-05T22:47:17.193Z,97105.09
2022-09-05T22:52:20.581Z,97110.44
2022-09-05T22:57:24.490Z,97103.69
2022-09-05T23:02:28.112Z,97102.75
2022-09-05T23:07:31.779Z,97086.84
2022-09-05T23:12:37.064Z,97087.66
2022-09-05T23:17:41.350Z,97086.03
2022-09-05T23:22:45.386Z,97086.69
2022-09-05T23:27:49.535Z,97083.31
2022-09-05T23:32:53.823Z,97084.59
2022-09-05T23:37:57.148Z,97076.22
2022-09-05T23:43:00.884Z,97076.22
2022-09-05T23:48:04.274Z,97074.13
2022-09-05T23:53:07.773Z,97080.84
2022-09-05T23:58:12.117Z,97079.72
